Time;durP1;ratioP1;P1;durP2;ratioP2;P2;SDS_P1;SDS_P2;PMS_P1;PMS_P2;Temp;Humidity;BMP_temperature;BMP_pressure;BME280_temperature;BME280_humidity;BME280_pressure;Samples;Min_cycle;Max_cycle;Signal;HPM_P1;HPM_P2
2023/01/18 00:00:41;;;;;;;0.20;0.20;;;;;;;;;;5021420;28;20037;-85
2023/01/18 00:03:11;;;;;;;0.20;0.10;;;;;;;;;;5016601;28;20041;-86
2023/01/18 00:05:41;;;;;;;0.20;0.10;;;;;;;;;;5018439;28;20037;-87
2023/01/18 00:08:11;;;;;;;0.20;0.10;;;;;;;;;;5022580;28;20420;-87
2023/01/18 00:10:37;;;;;;;0.20;0.10;;;;;;;;;;5001450;28;20047;-86
2023/01/18 00:15:32;;;;;;;0.20;0.10;;;;;;;;;;5077753;28;20043;-84
2023/01/18 00:17:58;;;;;;;0.20;0.10;;;;;;;;;;5082792;28;20117;-87
2023/01/18 00:20:25;;;;;;;0.20;0.10;;;;;;;;;;5062792;28;20040;-86
2023/01/18 00:22:52;;;;;;;0.20;0.10;;;;;;;;;;5064926;28;20064;-87
2023/01/18 00:25:18;;;;;;;0.20;0.10;;;;;;;;;;5083207;28;20368;-85
2023/01/18 00:27:49;;;;;;;0.20;0.10;;;;;;;;;;5078759;28;20487;-88
2023/01/18 00:30:16;;;;;;;0.20;0.10;;;;;;;;;;5066260;28;20367;-86
2023/01/18 00:32:43;;;;;;;0.20;0.10;;;;;;;;;;5081052;28;20115;-87
2023/01/18 00:35:09;;;;;;;0.20;0.10;;;;;;;;;;5069202;28;20063;-87
2023/01/18 00:37:35;;;;;;;0.20;0.10;;;;;;;;;;5065462;28;20117;-85
2023/01/18 00:40:04;;;;;;;0.20;0.10;;;;;;;;;;5067443;28;20040;-86
2023/01/18 00:45:21;;;;;;;0.20;0.10;;;;;;;;;;5071225;28;20501;-91
2023/01/18 00:47:47;;;;;;;0.20;0.10;;;;;;;;;;5070014;28;20054;-86
2023/01/18 00:50:13;;;;;;;0.20;0.10;;;;;;;;;;5067889;28;20127;-85
2023/01/18 00:52:45;;;;;;;0.20;0.10;;;;;;;;;;5054295;28;20066;-89
2023/01/18 00:55:16;;;;;;;0.20;0.10;;;;;;;;;;5069078;28;20118;-87
2023/01/18 00:57:51;;;;;;;0.20;0.10;;;;;;;;;;5048533;28;20051;-88
2023/01/18 01:00:26;;;;;;;0.20;0.10;;;;;;;;;;5062435;28;20058;-87
2023/01/18 01:02:52;;;;;;;0.20;0.10;;;;;;;;;;5044247;28;20047;-85
2023/01/18 01:08:15;;;;;;;0.20;0.10;;;;;;;;;;5064818;28;20097;-86
2023/01/18 01:10:44;;;;;;;0.20;0.10;;;;;;;;;;5067100;28;20461;-88
2023/01/18 01:26:54;;;;;;;0.20;0.10;;;;;;;;;;5065520;28;20051;-87
2023/01/18 01:29:21;;;;;;;0.20;0.10;;;;;;;;;;5079082;28;20132;-86
2023/01/18 01:31:51;;;;;;;0.20;0.20;;;;;;;;;;5056712;23;20033;-88
2023/01/18 01:34:20;;;;;;;0.20;0.10;;;;;;;;;;5044081;28;20040;-86
2023/01/18 01:36:46;;;;;;;0.20;0.10;;;;;;;;;;5017475;28;20052;-85
2023/01/18 01:39:12;;;;;;;0.20;0.10;;;;;;;;;;5055036;28;20044;-85
2023/01/18 01:41:38;;;;;;;0.20;0.10;;;;;;;;;;5038003;28;20040;-86
2023/01/18 01:44:18;;;;;;;0.20;0.10;;;;;;;;;;5058584;22;20057;-86
2023/01/18 01:46:55;;;;;;;0.20;0.10;;;;;;;;;;5017230;28;20041;-87
2023/01/18 01:49:28;;;;;;;0.20;0.10;;;;;;;;;;5022199;28;20037;-87
2023/01/18 01:51:54;;;;;;;0.20;0.10;;;;;;;;;;5017662;28;20116;-86
2023/01/18 01:54:24;;;;;;;0.20;0.10;;;;;;;;;;5007654;28;20429;-88
2023/01/18 01:56:52;;;;;;;0.20;0.10;;;;;;;;;;5007879;28;20029;-87
2023/01/18 01:59:18;;;;;;;0.20;0.10;;;;;;;;;;4988991;28;20033;-86
2023/01/18 02:01:45;;;;;;;0.20;0.10;;;;;;;;;;4987238;28;20043;-87
2023/01/18 02:04:12;;;;;;;0.20;0.10;;;;;;;;;;4997899;28;20041;-86
2023/01/18 02:06:38;;;;;;;0.20;0.10;;;;;;;;;;4999737;28;20091;-86
2023/01/18 02:09:09;;;;;;;0.20;0.10;;;;;;;;;;5000933;28;20120;-87
2023/01/18 02:11:39;;;;;;;0.20;0.10;;;;;;;;;;4992154;28;20246;-88
2023/01/18 02:14:07;;;;;;;0.20;0.10;;;;;;;;;;5008750;28;20041;-87
2023/01/18 02:16:39;;;;;;;0.20;0.20;;;;;;;;;;5012483;28;20526;-88
2023/01/18 02:19:24;;;;;;;0.20;0.10;;;;;;;;;;4999305;28;20322;-87
2023/01/18 02:21:57;;;;;;;0.20;0.10;;;;;;;;;;4992581;28;20140;-87
2023/01/18 02:24:39;;;;;;;0.20;0.10;;;;;;;;;;4997298;28;20332;-86
2023/01/18 02:27:09;;;;;;;0.20;0.10;;;;;;;;;;4999981;28;21185;-87
2023/01/18 02:29:40;;;;;;;0.20;0.10;;;;;;;;;;4994782;28;20033;-88
2023/01/18 02:32:15;;;;;;;0.20;0.10;;;;;;;;;;4999908;28;20436;-87
2023/01/18 02:34:53;;;;;;;0.20;0.10;;;;;;;;;;5010246;28;20116;-88
2023/01/18 02:37:35;;;;;;;0.20;0.10;;;;;;;;;;4995047;28;20404;-86
2023/01/18 02:40:20;;;;;;;0.20;0.10;;;;;;;;;;5010539;28;20065;-87
2023/01/18 02:48:30;;;;;;;0.20;0.10;;;;;;;;;;5025113;28;20037;-87
2023/01/18 02:50:56;;;;;;;0.20;0.10;;;;;;;;;;4996305;28;20084;-87
2023/01/18 02:53:22;;;;;;;0.20;0.10;;;;;;;;;;4991655;28;20038;-87
2023/01/18 02:55:54;;;;;;;0.20;0.10;;;;;;;;;;4991040;28;20041;-85
2023/01/18 02:58:26;;;;;;;0.20;0.10;;;;;;;;;;5003210;28;20041;-87
2023/01/18 03:00:59;;;;;;;0.20;0.10;;;;;;;;;;4997693;28;20618;-86
2023/01/18 03:03:25;;;;;;;0.20;0.10;;;;;;;;;;5017732;28;20052;-86
2023/01/18 03:05:53;;;;;;;0.20;0.10;;;;;;;;;;5013110;28;20041;-87
2023/01/18 03:08:37;;;;;;;0.20;0.10;;;;;;;;;;4997475;28;20049;-87
2023/01/18 03:11:24;;;;;;;0.20;0.10;;;;;;;;;;4995895;28;20041;-86
2023/01/18 03:13:59;;;;;;;0.20;0.10;;;;;;;;;;5010922;28;20069;-87
2023/01/18 03:16:26;;;;;;;0.20;0.10;;;;;;;;;;4994897;28;20038;-88
2023/01/18 03:19:04;;;;;;;0.20;0.10;;;;;;;;;;5023748;28;20132;-86
2023/01/18 03:21:37;;;;;;;1.05;0.98;;;;;;;;;;4990421;28;20045;-87
2023/01/18 03:24:05;;;;;;;0.20;0.10;;;;;;;;;;4996463;28;20083;-88
2023/01/18 03:26:33;;;;;;;0.20;0.10;;;;;;;;;;5013674;28;20041;-87
2023/01/18 03:35:26;;;;;;;0.20;0.10;;;;;;;;;;5029037;28;20428;-88
2023/01/18 03:37:56;;;;;;;0.20;0.10;;;;;;;;;;5001441;28;20067;-87
2023/01/18 03:40:24;;;;;;;0.20;0.10;;;;;;;;;;4999135;28;20034;-87
2023/01/18 03:43:11;;;;;;;0.20;0.10;;;;;;;;;;5015257;28;20073;-87
2023/01/18 03:45:45;;;;;;;0.20;0.10;;;;;;;;;;4998383;28;20041;-86
2023/01/18 03:48:12;;;;;;;0.20;0.10;;;;;;;;;;4983073;28;20049;-87
2023/01/18 03:50:59;;;;;;;0.20;0.10;;;;;;;;;;4999729;28;20128;-88
2023/01/18 03:53:42;;;;;;;0.20;0.10;;;;;;;;;;5032814;28;20033;-87
2023/01/18 03:56:24;;;;;;;0.20;0.10;;;;;;;;;;5000096;28;20042;-86
2023/01/18 03:58:53;;;;;;;0.20;0.10;;;;;;;;;;5017142;28;20076;-86
2023/01/18 04:01:19;;;;;;;0.20;0.10;;;;;;;;;;5001205;28;20045;-87
2023/01/18 04:03:45;;;;;;;0.20;0.10;;;;;;;;;;5001307;28;20033;-87
2023/01/18 04:09:07;;;;;;;0.20;0.10;;;;;;;;;;5023825;28;20503;-88
2023/01/18 04:11:33;;;;;;;0.20;0.10;;;;;;;;;;4998811;28;20120;-86
2023/01/18 04:13:59;;;;;;;0.20;0.10;;;;;;;;;;5017085;28;20045;-87
2023/01/18 04:16:25;;;;;;;0.20;0.10;;;;;;;;;;5036404;28;20025;-87
2023/01/18 04:18:52;;;;;;;0.20;0.10;;;;;;;;;;5014693;28;20037;-86
2023/01/18 04:21:18;;;;;;;0.20;0.10;;;;;;;;;;5001024;28;20332;-86
2023/01/18 04:23:44;;;;;;;0.20;0.10;;;;;;;;;;5012469;28;20038;-86
2023/01/18 04:26:12;;;;;;;0.20;0.10;;;;;;;;;;4999133;28;20435;-86
2023/01/18 04:28:40;;;;;;;0.20;0.10;;;;;;;;;;5000588;28;20033;-86
2023/01/18 04:31:08;;;;;;;0.20;0.10;;;;;;;;;;5002104;28;20070;-86
2023/01/18 04:33:35;;;;;;;0.20;0.10;;;;;;;;;;4988156;28;20052;-87
2023/01/18 04:36:01;;;;;;;0.20;0.10;;;;;;;;;;4997997;28;20514;-86
2023/01/18 04:38:29;;;;;;;0.20;0.10;;;;;;;;;;5019786;28;20408;-86
2023/01/18 04:40:55;;;;;;;0.20;0.10;;;;;;;;;;5010073;28;20150;-87
2023/01/18 04:43:21;;;;;;;0.20;0.10;;;;;;;;;;4997065;28;20044;-86
2023/01/18 04:45:54;;;;;;;0.20;0.10;;;;;;;;;;5015439;28;20037;-87
2023/01/18 04:48:20;;;;;;;0.20;0.10;;;;;;;;;;5000809;28;20037;-87
2023/01/18 04:50:47;;;;;;;0.20;0.10;;;;;;;;;;4999814;28;20041;-87
2023/01/18 04:53:13;;;;;;;0.20;0.10;;;;;;;;;;4988290;28;20125;-87
2023/01/18 04:55:39;;;;;;;0.20;0.10;;;;;;;;;;4999565;28;20550;-88
2023/01/18 04:58:07;;;;;;;0.20;0.10;;;;;;;;;;4997476;28;20121;-86
2023/01/18 05:00:34;;;;;;;0.20;0.10;;;;;;;;;;5003210;28;20516;-86
2023/01/18 05:03:00;;;;;;;0.20;0.10;;;;;;;;;;4999130;28;20392;-87
2023/01/18 05:05:26;;;;;;;0.20;0.10;;;;;;;;;;4999551;28;20038;-88
2023/01/18 05:07:52;;;;;;;0.20;0.10;;;;;;;;;;4988592;28;20059;-87
2023/01/18 05:10:22;;;;;;;0.20;0.10;;;;;;;;;;5021884;28;20044;-87
2023/01/18 05:12:48;;;;;;;0.20;0.10;;;;;;;;;;4999758;28;21135;-87
2023/01/18 05:15:14;;;;;;;0.20;0.10;;;;;;;;;;5007104;28;20034;-86
2023/01/18 05:17:40;;;;;;;0.20;0.10;;;;;;;;;;4995525;28;20037;-86
2023/01/18 05:20:10;;;;;;;0.20;0.10;;;;;;;;;;5025972;28;20112;-87
2023/01/18 05:22:38;;;;;;;0.20;0.10;;;;;;;;;;5004539;28;20528;-87
2023/01/18 05:25:05;;;;;;;0.20;0.10;;;;;;;;;;5009246;28;20703;-87
2023/01/18 05:27:31;;;;;;;0.20;0.10;;;;;;;;;;5001239;28;20041;-87
2023/01/18 05:29:58;;;;;;;0.20;0.10;;;;;;;;;;4995077;28;20037;-87
2023/01/18 05:32:24;;;;;;;0.20;0.10;;;;;;;;;;5008275;28;20496;-87
2023/01/18 05:34:50;;;;;;;0.20;0.10;;;;;;;;;;4999707;28;20480;-87
2023/01/18 05:37:24;;;;;;;0.20;0.10;;;;;;;;;;5033136;28;20472;-87
2023/01/18 05:39:52;;;;;;;0.20;0.10;;;;;;;;;;5011061;28;20063;-88
2023/01/18 05:42:22;;;;;;;0.20;0.10;;;;;;;;;;4995246;28;20427;-88
2023/01/18 05:44:52;;;;;;;0.20;0.10;;;;;;;;;;5010606;28;20592;-87
2023/01/18 05:47:21;;;;;;;0.20;0.10;;;;;;;;;;5007913;28;20049;-88
2023/01/18 05:49:48;;;;;;;0.20;0.10;;;;;;;;;;4989042;28;20480;-88
2023/01/18 05:52:14;;;;;;;0.20;0.10;;;;;;;;;;5014287;28;20124;-88
2023/01/18 05:54:40;;;;;;;0.20;0.10;;;;;;;;;;4999549;28;20076;-87
2023/01/18 05:57:06;;;;;;;0.20;0.10;;;;;;;;;;4990146;28;20125;-87
2023/01/18 05:59:35;;;;;;;0.20;0.10;;;;;;;;;;4996115;28;20041;-87
2023/01/18 06:02:01;;;;;;;0.20;0.10;;;;;;;;;;5015018;28;20113;-87
2023/01/18 06:04:27;;;;;;;0.20;0.10;;;;;;;;;;4996311;28;20099;-86
2023/01/18 06:06:53;;;;;;;0.20;0.10;;;;;;;;;;4983176;28;20048;-88
2023/01/18 06:09:20;;;;;;;0.20;0.10;;;;;;;;;;5000434;28;20621;-87
2023/01/18 06:11:46;;;;;;;0.20;0.10;;;;;;;;;;5020984;28;20127;-88
2023/01/18 06:14:12;;;;;;;0.20;0.10;;;;;;;;;;4999183;28;20029;-87
2023/01/18 06:16:38;;;;;;;0.20;0.10;;;;;;;;;;5002036;28;20041;-87
2023/01/18 06:19:07;;;;;;;0.20;0.10;;;;;;;;;;4988726;28;20068;-86
2023/01/18 06:21:36;;;;;;;0.20;0.10;;;;;;;;;;5000066;28;20033;-87
2023/01/18 06:24:02;;;;;;;0.20;0.10;;;;;;;;;;4989298;28;20037;-87
2023/01/18 06:26:31;;;;;;;0.20;0.10;;;;;;;;;;4986963;28;20038;-88
2023/01/18 06:28:57;;;;;;;0.20;0.10;;;;;;;;;;5004924;28;20766;-86
2023/01/18 06:31:23;;;;;;;0.20;0.10;;;;;;;;;;5004422;28;20041;-86
2023/01/18 06:33:50;;;;;;;0.20;0.10;;;;;;;;;;4986166;28;20625;-88
2023/01/18 06:36:16;;;;;;;0.20;0.10;;;;;;;;;;4983538;28;20050;-86
2023/01/18 06:38:42;;;;;;;0.20;0.13;;;;;;;;;;4986007;28;20053;-84
2023/01/18 06:41:11;;;;;;;0.20;0.10;;;;;;;;;;4990818;28;20060;-87
2023/01/18 06:43:37;;;;;;;0.20;0.10;;;;;;;;;;5018220;28;20055;-87
2023/01/18 06:46:06;;;;;;;0.20;0.10;;;;;;;;;;5009646;28;20037;-87
2023/01/18 06:48:38;;;;;;;0.20;0.10;;;;;;;;;;4993286;28;20068;-86
2023/01/18 06:51:04;;;;;;;0.20;0.10;;;;;;;;;;4999147;28;20068;-86
2023/01/18 06:53:30;;;;;;;0.20;0.10;;;;;;;;;;4998443;28;20077;-86
2023/01/18 06:55:57;;;;;;;0.20;0.10;;;;;;;;;;4986471;28;20052;-86
2023/01/18 06:58:24;;;;;;;0.20;0.10;;;;;;;;;;4995095;28;20199;-87
2023/01/18 07:00:53;;;;;;;0.20;0.10;;;;;;;;;;4981568;28;20037;-86
2023/01/18 07:03:19;;;;;;;0.20;0.10;;;;;;;;;;4986114;28;20045;-88
2023/01/18 07:05:46;;;;;;;0.20;0.10;;;;;;;;;;5008127;28;20045;-85
2023/01/18 07:08:13;;;;;;;0.32;0.32;;;;;;;;;;5013927;28;20041;-86
2023/01/18 07:10:39;;;;;;;0.20;0.10;;;;;;;;;;4994025;28;20060;-85
2023/01/18 07:13:08;;;;;;;0.20;0.10;;;;;;;;;;4994041;28;20037;-86
2023/01/18 07:15:34;;;;;;;0.20;0.10;;;;;;;;;;4995051;28;20041;-85
2023/01/18 07:18:02;;;;;;;0.20;0.10;;;;;;;;;;5006424;28;20075;-88
2023/01/18 07:20:28;;;;;;;0.20;0.10;;;;;;;;;;4999030;28;20751;-87
2023/01/18 07:22:54;;;;;;;0.20;0.10;;;;;;;;;;4995007;28;20258;-85
2023/01/18 07:25:21;;;;;;;0.20;0.10;;;;;;;;;;5013530;28;20160;-86
2023/01/18 07:27:48;;;;;;;0.20;0.10;;;;;;;;;;5006808;28;20045;-87
2023/01/18 07:30:14;;;;;;;2.50;1.00;;;;;;;;;;5024305;28;20503;-86
2023/01/18 07:32:47;;;;;;;0.20;0.10;;;;;;;;;;5002294;28;20163;-86
2023/01/18 07:35:13;;;;;;;0.20;0.10;;;;;;;;;;5015739;28;20095;-87
2023/01/18 07:37:39;;;;;;;0.20;0.10;;;;;;;;;;4993044;28;20049;-86
2023/01/18 07:40:08;;;;;;;0.20;0.10;;;;;;;;;;5002050;28;20065;-86
2023/01/18 07:42:34;;;;;;;0.20;0.10;;;;;;;;;;4996863;28;20068;-85
2023/01/18 07:45:16;;;;;;;0.20;0.10;;;;;;;;;;5044077;22;20152;-88
2023/01/18 07:47:44;;;;;;;0.20;0.10;;;;;;;;;;5045446;28;20490;-87
2023/01/18 07:50:21;;;;;;;0.20;0.10;;;;;;;;;;5050135;28;20032;-86
2023/01/18 07:53:07;;;;;;;0.20;0.10;;;;;;;;;;5049198;28;20032;-88
2023/01/18 07:55:39;;;;;;;0.20;0.10;;;;;;;;;;5044547;28;20052;-86
2023/01/18 07:58:09;;;;;;;0.20;0.10;;;;;;;;;;5050886;28;20077;-86
2023/01/18 08:01:01;;;;;;;0.20;0.10;;;;;;;;;;5041592;28;20589;-89
2023/01/18 08:07:22;;;;;;;0.20;0.10;;;;;;;;;;5000757;28;20045;-87
2023/01/18 08:10:07;;;;;;;0.20;0.10;;;;;;;;;;4984811;28;20463;-87
2023/01/18 08:12:39;;;;;;;0.20;0.10;;;;;;;;;;5036080;28;20040;-89
2023/01/18 08:15:05;;;;;;;0.20;0.10;;;;;;;;;;5047005;28;20105;-85
2023/01/18 08:17:38;;;;;;;0.20;0.10;;;;;;;;;;5055717;28;20047;-86
2023/01/18 08:20:16;;;;;;;0.20;0.10;;;;;;;;;;5055690;28;20237;-85
2023/01/18 08:22:47;;;;;;;0.20;0.10;;;;;;;;;;5062613;28;20104;-86
2023/01/18 08:25:13;;;;;;;0.20;0.10;;;;;;;;;;5060508;28;20119;-84
2023/01/18 08:27:42;;;;;;;1.75;1.65;;;;;;;;;;5045151;28;20048;-85
2023/01/18 08:30:09;;;;;;;0.20;0.10;;;;;;;;;;5045086;28;20115;-85
2023/01/18 08:33:04;;;;;;;0.20;0.10;;;;;;;;;;5061669;28;20118;-85
2023/01/18 08:36:12;;;;;;;0.20;0.10;;;;;;;;;;5031687;23;20049;-87
2023/01/18 08:38:38;;;;;;;0.20;0.10;;;;;;;;;;5013753;28;20053;-88
2023/01/18 08:41:07;;;;;;;0.20;0.10;;;;;;;;;;5038142;28;20037;-88
2023/01/18 08:43:49;;;;;;;0.20;0.10;;;;;;;;;;5023555;28;20109;-87
2023/01/18 08:46:35;;;;;;;0.20;0.10;;;;;;;;;;5021158;28;20047;-86
2023/01/18 08:49:05;;;;;;;0.20;0.10;;;;;;;;;;5029523;22;20041;-86
2023/01/18 08:51:31;;;;;;;0.20;0.10;;;;;;;;;;5015582;28;20124;-86
2023/01/18 08:53:58;;;;;;;0.20;0.10;;;;;;;;;;5014629;28;20037;-84
2023/01/18 08:56:27;;;;;;;0.20;0.10;;;;;;;;;;5021981;28;20037;-85
2023/01/18 08:58:53;;;;;;;0.20;0.10;;;;;;;;;;5037905;28;20045;-86
2023/01/18 09:01:21;;;;;;;0.20;0.10;;;;;;;;;;5026302;28;20037;-84
2023/01/18 09:03:49;;;;;;;0.20;0.10;;;;;;;;;;5034623;28;20407;-86
2023/01/18 09:06:16;;;;;;;0.20;0.10;;;;;;;;;;5007116;28;20045;-86
2023/01/18 09:08:42;;;;;;;0.20;0.10;;;;;;;;;;5016900;28;20172;-85
2023/01/18 09:11:10;;;;;;;0.20;0.10;;;;;;;;;;5021505;28;20048;-86
2023/01/18 09:13:40;;;;;;;0.20;0.10;;;;;;;;;;5009124;28;20057;-85
2023/01/18 09:16:07;;;;;;;0.20;0.10;;;;;;;;;;5002428;28;20506;-84
2023/01/18 09:18:34;;;;;;;0.20;0.20;;;;;;;;;;5008480;28;20049;-86
2023/01/18 09:21:04;;;;;;;0.20;0.10;;;;;;;;;;5008126;28;20157;-84
2023/01/18 09:23:30;;;;;;;0.20;0.10;;;;;;;;;;5005585;28;20136;-86
2023/01/18 09:26:01;;;;;;;0.20;0.10;;;;;;;;;;5001649;28;20065;-85
2023/01/18 09:28:27;;;;;;;0.20;0.10;;;;;;;;;;5003938;28;20499;-84
2023/01/18 09:30:53;;;;;;;0.20;0.10;;;;;;;;;;5022191;28;20077;-85
2023/01/18 09:33:19;;;;;;;0.20;0.10;;;;;;;;;;5006564;28;20033;-85
2023/01/18 09:35:46;;;;;;;0.20;0.10;;;;;;;;;;5000630;28;20045;-89
2023/01/18 09:38:12;;;;;;;0.20;0.10;;;;;;;;;;5005879;28;20042;-84
2023/01/18 09:40:43;;;;;;;0.20;0.10;;;;;;;;;;5034648;28;20146;-84
2023/01/18 09:43:17;;;;;;;0.20;0.10;;;;;;;;;;5020658;28;20033;-87
2023/01/18 09:45:45;;;;;;;0.20;0.10;;;;;;;;;;5007153;28;20090;-85
2023/01/18 09:48:16;;;;;;;0.20;0.10;;;;;;;;;;5019962;28;20029;-86
2023/01/18 09:50:42;;;;;;;0.20;0.10;;;;;;;;;;5020432;28;20059;-85
2023/01/18 09:53:20;;;;;;;0.20;0.10;;;;;;;;;;5018536;28;20245;-84
2023/01/18 09:55:53;;;;;;;0.20;0.10;;;;;;;;;;5001377;28;21317;-87
2023/01/18 09:58:31;;;;;;;0.20;0.10;;;;;;;;;;5018534;28;20124;-85
2023/01/18 10:01:26;;;;;;;0.20;0.10;;;;;;;;;;5004496;28;20053;-85
2023/01/18 10:03:54;;;;;;;0.20;0.10;;;;;;;;;;4996609;28;20051;-85
2023/01/18 10:06:26;;;;;;;0.20;0.10;;;;;;;;;;5016756;28;20041;-83
2023/01/18 10:09:00;;;;;;;0.20;0.10;;;;;;;;;;5002832;28;20411;-85
2023/01/18 10:11:58;;;;;;;0.20;0.10;;;;;;;;;;5000481;28;20096;-84
2023/01/18 10:14:24;;;;;;;0.30;0.30;;;;;;;;;;4966976;28;20643;-85
2023/01/18 10:17:00;;;;;;;0.20;0.10;;;;;;;;;;5016750;28;20132;-84
2023/01/18 10:19:30;;;;;;;0.20;0.10;;;;;;;;;;5006134;28;20055;-85
2023/01/18 10:22:23;;;;;;;0.20;0.10;;;;;;;;;;5020359;28;20040;-85
2023/01/18 10:25:08;;;;;;;0.20;0.10;;;;;;;;;;5016081;28;20045;-83
2023/01/18 10:27:35;;;;;;;0.20;0.10;;;;;;;;;;5015518;28;20048;-85
2023/01/18 10:30:09;;;;;;;0.20;0.10;;;;;;;;;;5008028;28;20987;-87
2023/01/18 10:32:37;;;;;;;0.20;0.10;;;;;;;;;;5024356;28;20057;-85
2023/01/18 10:35:13;;;;;;;0.20;0.10;;;;;;;;;;5013317;28;20045;-85
2023/01/18 10:37:44;;;;;;;0.20;0.10;;;;;;;;;;5005417;28;20037;-85
2023/01/18 10:40:12;;;;;;;0.98;0.98;;;;;;;;;;5016411;28;20052;-83
2023/01/18 10:42:49;;;;;;;0.20;0.10;;;;;;;;;;5019502;28;20044;-85
2023/01/18 10:45:20;;;;;;;0.35;0.32;;;;;;;;;;5030477;28;20037;-84
2023/01/18 10:47:54;;;;;;;0.20;0.10;;;;;;;;;;5011569;28;20132;-83
2023/01/18 10:50:23;;;;;;;0.20;0.10;;;;;;;;;;5017072;28;20443;-90
2023/01/18 10:52:49;;;;;;;0.20;0.10;;;;;;;;;;5005683;28;20071;-84
2023/01/18 10:55:16;;;;;;;0.20;0.13;;;;;;;;;;5003774;28;20583;-84
2023/01/18 10:57:43;;;;;;;0.20;0.10;;;;;;;;;;5038075;28;20037;-84
2023/01/18 11:00:20;;;;;;;0.20;0.10;;;;;;;;;;5010724;28;20041;-84
2023/01/18 11:02:46;;;;;;;0.20;0.10;;;;;;;;;;5003215;28;20072;-85
2023/01/18 11:05:27;;;;;;;0.20;0.10;;;;;;;;;;5008124;28;20040;-83
2023/01/18 11:08:12;;;;;;;0.22;0.15;;;;;;;;;;5004055;28;20110;-85
2023/01/18 11:10:40;;;;;;;0.20;0.10;;;;;;;;;;5037917;28;20420;-87
2023/01/18 11:13:25;;;;;;;0.20;0.10;;;;;;;;;;5006361;28;20557;-86
2023/01/18 11:16:04;;;;;;;0.20;0.10;;;;;;;;;;5006675;28;20434;-83
2023/01/18 11:18:33;;;;;;;0.20;0.10;;;;;;;;;;5022554;28;20045;-86
2023/01/18 11:20:59;;;;;;;0.20;0.10;;;;;;;;;;5018168;28;20450;-83
2023/01/18 11:23:34;;;;;;;0.20;0.10;;;;;;;;;;5019709;28;20049;-86
2023/01/18 11:26:14;;;;;;;0.63;0.63;;;;;;;;;;5012649;28;20036;-82
2023/01/18 11:28:45;;;;;;;0.20;0.10;;;;;;;;;;5005186;28;20037;-84
2023/01/18 11:31:16;;;;;;;0.20;0.10;;;;;;;;;;5010171;28;20053;-85
2023/01/18 11:33:48;;;;;;;0.20;0.10;;;;;;;;;;5037435;28;20033;-84
2023/01/18 11:36:14;;;;;;;;;;;;;;;;;;5039462;28;20037;-85
2023/01/18 11:38:40;;;;;;;0.20;0.10;;;;;;;;;;5021201;28;19916;-83
2023/01/18 11:41:27;;;;;;;0.20;0.10;;;;;;;;;;5020587;28;21500;-82
2023/01/18 11:44:10;;;;;;;0.20;0.10;;;;;;;;;;5017901;28;20057;-83
2023/01/18 11:46:42;;;;;;;0.20;0.10;;;;;;;;;;5018923;28;20049;-84
2023/01/18 11:49:26;;;;;;;0.20;0.10;;;;;;;;;;5000381;28;20041;-83
2023/01/18 11:52:16;;;;;;;0.20;0.10;;;;;;;;;;5010921;28;20037;-86
2023/01/18 11:54:47;;;;;;;0.20;0.10;;;;;;;;;;4980787;28;20040;-84
2023/01/18 11:57:14;;;;;;;0.20;0.10;;;;;;;;;;5018876;28;20498;-83
2023/01/18 11:59:44;;;;;;;0.20;0.10;;;;;;;;;;5006788;28;20136;-85
2023/01/18 12:02:29;;;;;;;0.20;0.10;;;;;;;;;;5018705;28;20159;-84
2023/01/18 12:05:15;;;;;;;0.20;0.10;;;;;;;;;;5023426;28;20037;-83
2023/01/18 12:07:44;;;;;;;0.20;0.10;;;;;;;;;;5024402;28;20049;-85
2023/01/18 12:10:32;;;;;;;0.20;0.10;;;;;;;;;;5002966;28;20041;-83
2023/01/18 12:13:17;;;;;;;0.20;0.10;;;;;;;;;;4980875;28;20045;-84
2023/01/18 12:16:00;;;;;;;0.20;0.10;;;;;;;;;;5036796;28;20037;-84
2023/01/18 12:18:32;;;;;;;0.28;0.28;;;;;;;;;;5024730;28;20041;-83
2023/01/18 12:21:04;;;;;;;0.47;0.45;;;;;;;;;;5015688;28;20047;-82
2023/01/18 12:23:49;;;;;;;0.20;0.13;;;;;;;;;;5008561;28;20073;-83
2023/01/18 12:26:35;;;;;;;0.20;0.20;;;;;;;;;;5019580;28;20110;-81
2023/01/18 12:29:22;;;;;;;0.20;0.10;;;;;;;;;;5011480;28;20042;-82
2023/01/18 12:31:48;;;;;;;0.20;0.10;;;;;;;;;;5036370;28;20056;-81
2023/01/18 12:34:19;;;;;;;0.20;0.10;;;;;;;;;;5041506;28;20041;-82
2023/01/18 12:37:05;;;;;;;0.20;0.10;;;;;;;;;;5004165;28;20111;-81
2023/01/18 12:39:50;;;;;;;0.20;0.10;;;;;;;;;;5016143;28;20037;-82
2023/01/18 12:42:36;;;;;;;0.20;0.10;;;;;;;;;;5034648;28;20041;-81
2023/01/18 12:45:25;;;;;;;0.20;0.10;;;;;;;;;;5017447;28;20328;-81
2023/01/18 12:48:07;;;;;;;0.52;0.52;;;;;;;;;;5026637;28;20040;-80
2023/01/18 12:50:36;;;;;;;0.20;0.10;;;;;;;;;;5017734;28;20048;-85
2023/01/18 12:53:09;;;;;;;0.20;0.10;;;;;;;;;;5021213;28;20120;-82
2023/01/18 12:55:38;;;;;;;0.20;0.10;;;;;;;;;;5002680;28;20041;-82
2023/01/18 12:58:04;;;;;;;0.57;0.57;;;;;;;;;;5020618;28;20110;-81
2023/01/18 13:00:37;;;;;;;0.20;0.10;;;;;;;;;;5017879;28;20041;-82
2023/01/18 13:03:14;;;;;;;0.20;0.10;;;;;;;;;;5016223;28;20047;-84
2023/01/18 13:05:55;;;;;;;0.20;0.10;;;;;;;;;;5006649;28;20037;-80
2023/01/18 13:08:27;;;;;;;0.20;0.10;;;;;;;;;;5004594;28;20068;-82
2023/01/18 13:10:55;;;;;;;0.20;0.10;;;;;;;;;;5012609;28;20041;-82
2023/01/18 13:13:25;;;;;;;0.20;0.20;;;;;;;;;;5020060;28;20550;-81
2023/01/18 13:16:10;;;;;;;0.50;0.50;;;;;;;;;;5015071;28;20029;-82
2023/01/18 13:18:56;;;;;;;0.20;0.10;;;;;;;;;;5006393;28;20055;-81
2023/01/18 13:21:37;;;;;;;0.20;0.10;;;;;;;;;;5005744;28;20109;-82
2023/01/18 13:24:06;;;;;;;0.20;0.10;;;;;;;;;;5000280;28;20071;-83
2023/01/18 13:26:34;;;;;;;0.20;0.10;;;;;;;;;;5024135;28;20041;-82
2023/01/18 13:29:07;;;;;;;0.43;0.43;;;;;;;;;;5035327;28;20042;-82
2023/01/18 13:31:33;;;;;;;0.20;0.10;;;;;;;;;;5009423;28;20079;-83
2023/01/18 13:33:59;;;;;;;0.20;0.10;;;;;;;;;;5006649;28;20047;-82
2023/01/18 13:36:25;;;;;;;0.20;0.10;;;;;;;;;;5011154;28;20522;-83
2023/01/18 13:38:54;;;;;;;0.22;0.22;;;;;;;;;;5008095;28;20045;-81
2023/01/18 13:41:24;;;;;;;0.20;0.10;;;;;;;;;;5007941;28;20036;-82
2023/01/18 13:43:50;;;;;;;0.20;0.10;;;;;;;;;;5010655;28;20040;-82
2023/01/18 13:46:21;;;;;;;0.20;0.10;;;;;;;;;;5037140;28;20041;-83
2023/01/18 13:48:56;;;;;;;0.20;0.10;;;;;;;;;;5017215;28;20044;-82
2023/01/18 13:51:40;;;;;;;0.20;0.10;;;;;;;;;;5039180;28;20036;-85
2023/01/18 13:54:10;;;;;;;0.20;0.20;;;;;;;;;;5036470;28;20041;-81
2023/01/18 13:56:37;;;;;;;0.20;0.10;;;;;;;;;;5039578;28;20051;-82
2023/01/18 13:59:04;;;;;;;0.20;0.10;;;;;;;;;;5022808;28;20080;-81
2023/01/18 14:01:32;;;;;;;0.20;0.10;;;;;;;;;;5006445;28;20190;-83
2023/01/18 14:04:04;;;;;;;0.20;0.10;;;;;;;;;;5037568;28;20041;-85
2023/01/18 14:06:32;;;;;;;0.28;0.28;;;;;;;;;;5019020;28;20046;-83
2023/01/18 14:09:02;;;;;;;0.20;0.10;;;;;;;;;;5037629;28;20444;-82
2023/01/18 14:11:30;;;;;;;0.20;0.10;;;;;;;;;;5003032;28;20065;-82
2023/01/18 14:14:13;;;;;;;0.20;0.10;;;;;;;;;;5022646;28;20156;-83
2023/01/18 14:16:52;;;;;;;3.50;3.22;;;;;;;;;;5004440;28;20120;-86
2023/01/18 14:19:19;;;;;;;0.20;0.10;;;;;;;;;;5017926;28;20091;-84
2023/01/18 14:22:04;;;;;;;0.20;0.10;;;;;;;;;;5035662;28;20049;-81
2023/01/18 14:24:37;;;;;;;0.20;0.10;;;;;;;;;;5016498;28;20057;-82
2023/01/18 14:27:04;;;;;;;0.20;0.10;;;;;;;;;;5017080;28;20079;-83
2023/01/18 14:29:36;;;;;;;0.20;0.10;;;;;;;;;;5038096;28;20052;-83
2023/01/18 14:32:06;;;;;;;0.20;0.15;;;;;;;;;;5015755;28;20083;-82
2023/01/18 14:34:32;;;;;;;0.20;0.10;;;;;;;;;;5023004;28;20041;-81
2023/01/18 14:36:58;;;;;;;0.20;0.10;;;;;;;;;;5012872;28;20049;-83
2023/01/18 14:39:25;;;;;;;0.20;0.10;;;;;;;;;;5039819;28;20044;-82
2023/01/18 14:41:56;;;;;;;0.20;0.10;;;;;;;;;;5015214;28;20075;-82
2023/01/18 14:44:25;;;;;;;0.20;0.10;;;;;;;;;;5040133;28;20063;-82
2023/01/18 14:46:52;;;;;;;0.35;0.25;;;;;;;;;;5040125;28;20041;-84
2023/01/18 14:49:29;;;;;;;0.20;0.10;;;;;;;;;;5056401;23;20466;-86
2023/01/18 14:51:55;;;;;;;0.20;0.10;;;;;;;;;;5052769;28;20041;-85
2023/01/18 14:54:28;;;;;;;0.20;0.10;;;;;;;;;;5055440;28;20044;-85
2023/01/18 14:57:01;;;;;;;0.20;0.10;;;;;;;;;;5053740;28;20033;-85
2023/01/18 14:59:33;;;;;;;0.20;0.20;;;;;;;;;;5039912;28;20064;-86
2023/01/18 15:02:23;;;;;;;0.20;0.10;;;;;;;;;;5054014;28;20041;-88
2023/01/18 15:05:11;;;;;;;0.20;0.10;;;;;;;;;;5052938;28;20564;-87
2023/01/18 15:07:38;;;;;;;0.20;0.10;;;;;;;;;;5044405;28;20109;-86
2023/01/18 15:10:07;;;;;;;0.20;0.10;;;;;;;;;;5034927;28;20090;-86
2023/01/18 15:12:33;;;;;;;0.20;0.10;;;;;;;;;;5033466;28;20033;-87
2023/01/18 15:15:04;;;;;;;0.30;0.30;;;;;;;;;;5040744;28;20056;-88
2023/01/18 15:17:30;;;;;;;0.20;0.10;;;;;;;;;;5037060;28;20067;-87
2023/01/18 15:20:13;;;;;;;0.20;0.10;;;;;;;;;;5057253;28;20090;-86
2023/01/18 15:22:45;;;;;;;0.20;0.10;;;;;;;;;;5057064;28;20039;-87
2023/01/18 15:25:37;;;;;;;0.20;0.15;;;;;;;;;;5055202;28;20040;-87
2023/01/18 15:28:04;;;;;;;0.77;0.75;;;;;;;;;;5032456;28;20044;-84
2023/01/18 15:30:31;;;;;;;3.33;2.55;;;;;;;;;;5030314;28;20051;-85
2023/01/18 15:33:01;;;;;;;0.20;0.10;;;;;;;;;;5039861;28;20044;-87
2023/01/18 15:35:27;;;;;;;0.20;0.10;;;;;;;;;;5054770;28;20083;-84
2023/01/18 15:38:01;;;;;;;0.20;0.20;;;;;;;;;;5054553;28;20040;-86
2023/01/18 15:40:30;;;;;;;1.08;1.08;;;;;;;;;;5051900;28;20036;-84
2023/01/18 15:43:03;;;;;;;0.20;0.10;;;;;;;;;;5044127;28;20120;-86
2023/01/18 15:45:39;;;;;;;0.20;0.10;;;;;;;;;;5038542;28;20060;-85
2023/01/18 15:48:22;;;;;;;1.13;1.13;;;;;;;;;;5040780;28;20049;-87